createdAt,value
2018-09-28T00:00:12.276Z,75.52
2018-09-28T00:02:41.323Z,75.70
2018-09-28T00:05:10.412Z,75.71
2018-09-28T00:07:39.493Z,75.54
2018-09-28T00:10:08.767Z,75.45
2018-09-28T00:12:38.052Z,75.22
2018-09-28T00:15:07.136Z,75.36
2018-09-28T00:17:36.424Z,75.61
2018-09-28T00:20:05.671Z,75.73
2018-09-28T00:22:35.690Z,75.89
2018-09-28T00:25:05.394Z,75.85
2018-09-28T00:27:34.456Z,75.85
2018-09-28T00:30:03.657Z,76.01
2018-09-28T00:32:32.656Z,76.01
2018-09-28T00:35:01.723Z,76.03
2018-09-28T00:37:30.751Z,76.21
2018-09-28T00:39:59.876Z,76.28
2018-09-28T00:42:28.985Z,76.27
2018-09-28T00:44:58.747Z,76.35
2018-09-28T00:47:27.829Z,76.56
2018-09-28T00:49:57.041Z,76.50
2018-09-28T00:52:26.133Z,76.36
2018-09-28T00:54:55.172Z,76.28
2018-09-28T00:57:24.241Z,76.00
2018-09-28T00:59:53.313Z,76.14
2018-09-28T01:02:23.304Z,76.08
2018-09-28T01:04:52.468Z,75.97
2018-09-28T01:07:22.480Z,75.95
2018-09-28T01:09:51.867Z,75.73
2018-09-28T01:12:20.875Z,75.68
2018-09-28T01:14:49.951Z,75.67
2018-09-28T01:17:19.185Z,75.64
2018-09-28T01:19:48.213Z,75.57
2018-09-28T01:22:17.523Z,75.39
2018-09-28T01:24:46.609Z,75.30
2018-09-28T01:27:15.755Z,75.38
2018-09-28T01:29:45.414Z,75.69
2018-09-28T01:32:14.397Z,75.59
2018-09-28T01:34:43.532Z,75.88
2018-09-28T01:37:13.426Z,75.91
2018-09-28T01:39:42.632Z,75.76
2018-09-28T01:42:11.823Z,75.75
2018-09-28T01:44:41.593Z,75.76
2018-09-28T01:47:11.631Z,75.76
2018-09-28T01:49:40.612Z,75.81
2018-09-28T01:52:09.902Z,75.90
2018-09-28T01:54:40.708Z,75.74
2018-09-28T01:57:09.850Z,75.85
2018-09-28T01:59:38.919Z,75.92
2018-09-28T02:02:07.960Z,76.13
2018-09-28T02:04:36.968Z,76.08
2018-09-28T02:07:06.060Z,75.95
2018-09-28T02:09:35.150Z,75.83
2018-09-28T02:12:04.273Z,75.64
2018-09-28T02:14:33.441Z,75.41
2018-09-28T02:17:02.506Z,75.46
2018-09-28T02:19:31.538Z,75.52
2018-09-28T02:22:00.618Z,75.57
2018-09-28T02:24:30.303Z,75.52
2018-09-28T02:27:00.056Z,75.62
2018-09-28T02:29:29.112Z,75.60
2018-09-28T02:31:58.748Z,75.23
2018-09-28T02:34:28.426Z,75.51
2018-09-28T02:36:57.423Z,75.30
2018-09-28T02:39:26.455Z,75.39
2018-09-28T02:41:55.434Z,75.52
2018-09-28T02:44:24.430Z,75.49
2018-09-28T02:46:53.803Z,75.75
2018-09-28T02:49:23.235Z,75.69
2018-09-28T02:51:52.554Z,75.50
2018-09-28T02:54:21.897Z,75.07
2018-09-28T02:56:51.147Z,75.18
2018-09-28T02:59:21.388Z,74.84
2018-09-28T03:01:50.552Z,75.00
2018-09-28T03:04:19.667Z,74.63
2018-09-28T03:06:48.677Z,74.91
2018-09-28T03:09:17.750Z,74.77
2018-09-28T03:11:46.811Z,74.88
2018-09-28T03:14:15.896Z,74.69
2018-09-28T03:16:45.442Z,74.56
2018-09-28T03:19:14.600Z,74.49
2018-09-28T03:21:43.700Z,74.59
2018-09-28T03:24:13.960Z,74.62
2018-09-28T03:26:43.019Z,74.59
2018-09-28T03:29:12.096Z,74.62
2018-09-28T03:31:41.295Z,74.67
2018-09-28T03:34:10.315Z,74.59
2018-09-28T03:36:39.511Z,74.61
2018-09-28T03:39:09.114Z,74.61
2018-09-28T03:41:38.149Z,74.84
2018-09-28T03:44:07.413Z,75.11
2018-09-28T03:46:36.735Z,75.30
2018-09-28T03:49:05.932Z,75.13
2018-09-28T03:51:34.979Z,75.16
2018-09-28T03:54:04.019Z,75.15
2018-09-28T03:56:33.048Z,75.42
2018-09-28T03:59:02.719Z,75.23
2018-09-28T04:01:31.861Z,75.08
2018-09-28T04:04:02.044Z,75.12
2018-09-28T04:06:31.031Z,75.06
2018-09-28T04:09:00.029Z,75.46
2018-09-28T04:11:29.062Z,75.43
2018-09-28T04:13:58.045Z,75.33
2018-09-28T04:16:27.042Z,75.61
2018-09-28T04:18:56.063Z,75.57
2018-09-28T04:21:25.121Z,75.35
2018-09-28T04:23:54.189Z,75.65
2018-09-28T04:26:23.214Z,75.61
2018-09-28T04:28:52.248Z,75.45
2018-09-28T04:31:21.341Z,75.59
2018-09-28T04:33:50.400Z,75.75
2018-09-28T04:36:19.371Z,75.60
2018-09-28T04:38:48.432Z,75.51
2018-09-28T04:41:17.485Z,75.38
2018-09-28T04:43:46.556Z,75.33
2018-09-28T04:46:15.611Z,75.20
2018-09-28T04:48:44.708Z,75.20
2018-09-28T04:51:13.724Z,75.29
2018-09-28T04:53:42.716Z,75.21
2018-09-28T04:56:12.041Z,75.19
2018-09-28T04:58:41.088Z,75.33
2018-09-28T05:01:10.161Z,75.25
2018-09-28T05:03:39.434Z,75.16
2018-09-28T05:06:08.553Z,75.15
2018-09-28T05:08:37.574Z,75.11
2018-09-28T05:11:06.647Z,75.02
2018-09-28T05:13:35.717Z,74.95
2018-09-28T05:16:04.822Z,74.93
2018-09-28T05:18:33.903Z,74.79
2018-09-28T05:21:02.976Z,74.74
2018-09-28T05:23:32.173Z,74.72
2018-09-28T05:26:01.224Z,74.83
2018-09-28T05:28:30.284Z,74.65
2018-09-28T05:30:59.459Z,74.93
2018-09-28T05:33:28.851Z,75.00
2018-09-28T05:35:57.836Z,74.82
2018-09-28T05:38:27.216Z,74.86
2018-09-28T05:40:56.264Z,74.88
2018-09-28T05:43:25.337Z,74.77
2018-09-28T05:45:54.378Z,74.74
2018-09-28T05:48:23.432Z,74.88
2018-09-28T05:50:52.460Z,74.81
2018-09-28T05:53:21.521Z,74.81
2018-09-28T05:55:50.511Z,74.84
2018-09-28T05:58:24.652Z,74.96
2018-09-28T06:00:58.841Z,74.91
2018-09-28T06:04:10.036Z,74.68
2018-09-28T06:06:43.825Z,74.96
2018-09-28T06:09:14.005Z,75.18
2018-09-28T06:11:51.550Z,75.01
2018-09-28T06:14:24.347Z,75.17
2018-09-28T06:16:57.621Z,75.16
2018-09-28T06:19:33.981Z,75.40
2018-09-28T06:24:51.325Z,75.38
2018-09-28T06:27:20.336Z,75.41
2018-09-28T06:29:49.348Z,75.36
2018-09-28T06:32:18.425Z,75.44
2018-09-28T06:34:48.631Z,75.34
2018-09-28T06:37:17.664Z,75.28
2018-09-28T06:39:46.712Z,75.31
2018-09-28T06:42:15.780Z,75.15
2018-09-28T06:44:45.723Z,75.22
2018-09-28T06:47:14.684Z,75.29
2018-09-28T06:49:43.690Z,75.25
2018-09-28T06:52:12.845Z,75.29
2018-09-28T06:54:41.846Z,75.19
2018-09-28T06:57:10.939Z,75.22
2018-09-28T06:59:42.248Z,75.05
2018-09-28T07:02:14.677Z,75.30
2018-09-28T07:04:44.024Z,75.16
2018-09-28T07:07:13.060Z,75.25
2018-09-28T07:09:42.066Z,74.86
2018-09-28T07:12:11.157Z,74.94
2018-09-28T07:14:40.432Z,74.62
2018-09-28T07:17:09.833Z,74.61
2018-09-28T07:19:39.129Z,74.63
2018-09-28T07:22:10.017Z,74.48
2018-09-28T07:24:39.299Z,74.40
2018-09-28T07:27:09.240Z,74.27
2018-09-28T07:29:38.592Z,74.90
2018-09-28T07:32:08.694Z,74.37
2018-09-28T07:34:38.798Z,74.42
2018-09-28T07:37:10.657Z,74.46
2018-09-28T07:39:40.040Z,74.25
2018-09-28T07:42:09.410Z,74.11
2018-09-28T07:44:38.461Z,74.18
2018-09-28T07:47:11.050Z,74.07
2018-09-28T07:49:41.540Z,74.10
2018-09-28T07:52:13.138Z,73.81
2018-09-28T07:54:43.750Z,74.08
2018-09-28T07:57:14.792Z,74.06
2018-09-28T08:02:18.622Z,73.93
2018-09-28T08:04:48.955Z,74.00
2018-09-28T08:07:18.083Z,73.68
2018-09-28T08:09:47.205Z,73.75
2018-09-28T08:12:19.012Z,74.00
2018-09-28T08:14:48.695Z,73.78
2018-09-28T08:17:19.475Z,73.78
2018-09-28T08:19:50.406Z,73.99
2018-09-28T08:22:20.611Z,73.79
2018-09-28T08:25:12.703Z,73.55
2018-09-28T08:30:36.568Z,73.34
2018-09-28T08:33:05.645Z,72.94
2018-09-28T08:35:35.371Z,72.75
2018-09-28T08:38:04.406Z,72.57
2018-09-28T08:40:33.833Z,72.56
2018-09-28T08:43:03.396Z,72.56
2018-09-28T08:45:32.615Z,72.49
2018-09-28T08:48:01.926Z,72.24
2018-09-28T08:50:41.000Z,71.88
2018-09-28T08:53:11.343Z,72.12
2018-09-28T08:55:40.842Z,72.15
2018-09-28T08:58:14.325Z,71.98
2018-09-28T09:00:43.521Z,71.86
2018-09-28T09:03:12.693Z,71.67
2018-09-28T09:05:42.710Z,71.35
2018-09-28T09:08:12.622Z,71.48
2018-09-28T09:10:41.908Z,71.47
2018-09-28T09:13:11.093Z,71.36
2018-09-28T09:15:40.277Z,71.10
2018-09-28T09:18:09.748Z,71.24
2018-09-28T09:20:39.024Z,70.92
2018-09-28T09:23:08.349Z,70.93
2018-09-28T09:25:37.405Z,71.11
2018-09-28T09:28:06.752Z,71.27
2018-09-28T09:30:36.896Z,70.82
2018-09-28T09:33:05.958Z,70.95
2018-09-28T09:35:35.049Z,71.00
2018-09-28T09:38:04.453Z,70.61
2018-09-28T09:40:33.671Z,70.88
2018-09-28T09:43:02.804Z,70.70
2018-09-28T09:45:32.138Z,70.83
2018-09-28T09:48:02.168Z,70.70
2018-09-28T09:50:31.412Z,70.63
2018-09-28T09:53:00.741Z,70.51
2018-09-28T09:55:30.100Z,70.53
2018-09-28T09:57:59.810Z,70.73
2018-09-28T10:00:33.995Z,70.64
2018-09-28T10:03:07.166Z,70.33
2018-09-28T10:05:36.293Z,70.16
2018-09-28T10:08:05.638Z,70.08
2018-09-28T10:10:34.871Z,70.06
2018-09-28T10:13:04.005Z,70.16
2018-09-28T10:15:34.167Z,69.89
2018-09-28T10:18:03.255Z,69.50
2018-09-28T10:20:32.345Z,69.66
2018-09-28T10:23:02.028Z,69.54
2018-09-28T10:25:31.224Z,69.44
2018-09-28T10:28:01.747Z,69.42
2018-09-28T10:30:30.788Z,69.49
2018-09-28T10:32:59.926Z,69.58
2018-09-28T10:35:29.088Z,69.01
2018-09-28T10:37:59.120Z,68.92
2018-09-28T10:40:28.328Z,68.63
2018-09-28T10:45:54.798Z,68.82
2018-09-28T10:48:24.739Z,68.29
2018-09-28T10:50:54.667Z,68.59
2018-09-28T10:53:23.936Z,68.12
2018-09-28T10:55:52.970Z,68.17
2018-09-28T10:58:22.234Z,68.10
2018-09-28T11:00:52.879Z,68.34
2018-09-28T11:03:23.490Z,67.80
2018-09-28T11:06:00.787Z,67.50
2018-09-28T11:08:30.725Z,66.88
2018-09-28T11:11:00.493Z,66.46
2018-09-28T11:13:29.797Z,65.88
2018-09-28T11:15:59.043Z,65.80
2018-09-28T11:18:29.674Z,65.20
2018-09-28T11:20:59.327Z,65.15
2018-09-28T11:23:29.612Z,65.08
2018-09-28T11:26:00.812Z,64.73
2018-09-28T11:28:30.559Z,64.66
2018-09-28T11:30:59.654Z,64.39
2018-09-28T11:33:28.741Z,63.73
2018-09-28T11:35:58.166Z,63.41
2018-09-28T11:38:28.280Z,63.30
2018-09-28T11:40:57.454Z,63.65
2018-09-28T11:43:28.075Z,63.66
2018-09-28T11:45:57.438Z,63.13
2018-09-28T11:48:27.650Z,63.56
2018-09-28T11:50:58.903Z,63.59
2018-09-28T11:53:32.963Z,63.48
2018-09-28T11:56:02.349Z,63.49
2018-09-28T11:58:31.365Z,63.78
2018-09-28T12:01:01.372Z,63.59
2018-09-28T12:03:32.281Z,63.41
2018-09-28T12:06:01.457Z,63.25
2018-09-28T12:08:31.686Z,63.16
2018-09-28T12:11:01.796Z,63.17
2018-09-28T12:13:31.206Z,63.05
2018-09-28T12:16:01.831Z,62.37
2018-09-28T12:18:31.308Z,62.19
2018-09-28T12:21:01.293Z,62.33
2018-09-28T12:23:30.361Z,62.26
2018-09-28T12:26:01.549Z,61.88
2018-09-28T12:28:30.682Z,61.52
2018-09-28T12:31:00.790Z,61.40
2018-09-28T12:33:30.033Z,61.11
2018-09-28T12:35:59.250Z,60.45
2018-09-28T12:38:29.452Z,60.41
2018-09-28T12:40:58.580Z,60.16
2018-09-28T12:43:35.029Z,59.88
2018-09-28T12:45:57.682Z,59.52
2018-09-28T12:48:27.996Z,59.43
2018-09-28T12:50:57.066Z,59.50
2018-09-28T12:53:26.884Z,59.15
2018-09-28T12:55:56.485Z,58.88
2018-09-28T12:58:25.634Z,58.18
2018-09-28T13:00:55.668Z,57.92
2018-09-28T13:03:24.721Z,57.96
2018-09-28T13:05:53.908Z,57.70
2018-09-28T13:08:23.230Z,57.24
2018-09-28T13:10:54.111Z,57.29
2018-09-28T13:13:24.285Z,57.37
2018-09-28T13:15:53.378Z,56.97
2018-09-28T13:18:27.081Z,57.11
2018-09-28T13:20:58.291Z,57.07
2018-09-28T13:23:27.421Z,57.45
2018-09-28T13:25:56.497Z,57.11
2018-09-28T13:28:25.815Z,57.55
2018-09-28T13:30:55.459Z,57.32
2018-09-28T13:33:26.302Z,57.19
2018-09-28T13:35:55.439Z,57.14
2018-09-28T13:38:25.174Z,56.89
2018-09-28T13:40:54.470Z,56.76
2018-09-28T13:43:23.590Z,56.46
2018-09-28T13:45:52.812Z,56.12
2018-09-28T13:48:22.256Z,56.20
2018-09-28T13:50:52.189Z,55.84
2018-09-28T13:53:49.574Z,55.96
2018-09-28T13:56:19.643Z,55.61
2018-09-28T13:58:49.498Z,55.73
2018-09-28T14:01:19.282Z,55.76
2018-09-28T14:03:48.395Z,55.79
2018-09-28T14:06:17.499Z,55.68
2018-09-28T14:08:46.888Z,55.67
2018-09-28T14:11:16.018Z,55.48
2018-09-28T14:13:45.124Z,55.60
2018-09-28T14:16:14.326Z,55.90
2018-09-28T14:18:43.914Z,56.05
2018-09-28T14:21:13.009Z,56.00
2018-09-28T14:23:42.138Z,55.58
2018-09-28T14:26:11.246Z,55.11
2018-09-28T14:28:40.408Z,55.08
2018-09-28T14:31:10.190Z,55.16
2018-09-28T14:33:40.109Z,54.86
2018-09-28T14:36:09.408Z,54.58
2018-09-28T14:38:38.836Z,54.59
2018-09-28T14:41:09.192Z,54.27
2018-09-28T14:43:38.665Z,54.16
2018-09-28T14:46:07.922Z,54.20
2018-09-28T14:48:39.009Z,53.99
2018-09-28T14:51:08.266Z,53.97
2018-09-28T14:53:42.800Z,54.13
2018-09-28T14:56:29.484Z,54.09
2018-09-28T14:59:06.510Z,54.32
2018-09-28T15:01:42.571Z,54.57
2018-09-28T15:04:11.796Z,54.34
2018-09-28T15:06:42.268Z,54.22
2018-09-28T15:09:18.363Z,54.01
2018-09-28T15:11:47.671Z,54.07
2018-09-28T15:14:17.742Z,54.12
2018-09-28T15:16:47.170Z,54.34
2018-09-28T15:19:16.395Z,53.84
2018-09-28T15:21:45.417Z,53.67
2018-09-28T15:24:14.774Z,53.72
2018-09-28T15:26:44.073Z,53.78
2018-09-28T15:29:13.554Z,54.05
2018-09-28T15:31:44.001Z,53.95
2018-09-28T15:34:13.303Z,53.83
2018-09-28T15:36:42.533Z,53.33
2018-09-28T15:39:13.355Z,52.62
2018-09-28T15:41:43.911Z,52.17
2018-09-28T15:44:13.094Z,52.58
2018-09-28T15:46:42.211Z,52.63
2018-09-28T15:49:11.262Z,52.54
2018-09-28T15:51:40.428Z,52.45
2018-09-28T15:54:09.511Z,52.18
2018-09-28T15:56:38.791Z,51.74
2018-09-28T15:59:15.467Z,51.85
2018-09-28T16:01:44.788Z,52.11
2018-09-28T16:04:13.979Z,52.04
2018-09-28T16:06:43.079Z,52.40
2018-09-28T16:09:12.091Z,52.34
2018-09-28T16:11:41.107Z,52.62
2018-09-28T16:14:10.780Z,52.04
2018-09-28T16:16:39.922Z,51.62
2018-09-28T16:19:09.027Z,51.81
2018-09-28T16:21:38.258Z,51.82
2018-09-28T16:24:07.430Z,52.06
2018-09-28T16:26:36.943Z,52.10
2018-09-28T16:29:06.807Z,52.32
2018-09-28T16:31:35.845Z,52.26
2018-09-28T16:34:06.448Z,52.20
2018-09-28T16:36:35.780Z,51.79
2018-09-28T16:39:06.560Z,51.71
2018-09-28T16:41:35.602Z,51.73
2018-09-28T16:44:05.016Z,51.74
2018-09-28T16:46:35.008Z,51.98
2018-09-28T16:49:04.627Z,51.97
2018-09-28T16:51:34.389Z,52.12
2018-09-28T16:54:03.595Z,52.69
2018-09-28T16:56:32.657Z,52.84
2018-09-28T16:59:01.702Z,52.79
2018-09-28T17:01:30.725Z,52.60
2018-09-28T17:03:59.793Z,52.69
2018-09-28T17:06:28.782Z,52.84
2018-09-28T17:08:57.852Z,52.95
2018-09-28T17:11:26.870Z,52.94
2018-09-28T17:13:56.321Z,52.87
2018-09-28T17:16:26.221Z,53.39
2018-09-28T17:18:55.417Z,53.34
2018-09-28T17:21:24.747Z,53.71
2018-09-28T17:23:53.856Z,53.67
2018-09-28T17:26:24.021Z,54.08
2018-09-28T17:28:53.127Z,54.21
2018-09-28T17:31:22.151Z,54.26
2018-09-28T17:33:51.189Z,54.43
2018-09-28T17:36:20.261Z,54.56
2018-09-28T17:38:49.303Z,54.66
2018-09-28T17:41:18.522Z,54.92
2018-09-28T17:43:47.572Z,55.03
2018-09-28T17:46:16.602Z,55.44
2018-09-28T17:48:45.766Z,55.95
2018-09-28T17:51:15.046Z,56.11
2018-09-28T17:53:44.258Z,56.60
2018-09-28T17:56:13.307Z,56.82
2018-09-28T17:58:47.780Z,57.13
2018-09-28T18:01:16.899Z,57.86
2018-09-28T18:03:46.095Z,57.87
2018-09-28T18:06:16.355Z,58.17
2018-09-28T18:08:45.491Z,58.47
2018-09-28T18:11:15.471Z,58.63
2018-09-28T18:13:44.525Z,58.98
2018-09-28T18:16:14.104Z,59.24
2018-09-28T18:18:43.940Z,59.68
2018-09-28T18:21:13.124Z,59.96
2018-09-28T18:23:42.174Z,60.10
2018-09-28T18:26:11.600Z,60.52
2018-09-28T18:28:40.694Z,61.05
2018-09-28T18:31:09.807Z,61.10
2018-09-28T18:33:38.927Z,61.43
2018-09-28T18:36:07.895Z,61.75
2018-09-28T18:38:37.093Z,62.09
2018-09-28T18:41:06.138Z,62.45
2018-09-28T18:43:35.197Z,62.86
2018-09-28T18:46:04.542Z,62.97
2018-09-28T18:48:33.645Z,63.20
2018-09-28T18:51:02.877Z,63.41
2018-09-28T18:53:32.941Z,63.61
2018-09-28T18:56:02.105Z,63.87
2018-09-28T18:58:31.275Z,64.09
2018-09-28T19:01:01.217Z,64.84
2018-09-28T19:03:30.317Z,65.04
2018-09-28T19:06:02.023Z,65.26
2018-09-28T19:08:33.729Z,65.50
2018-09-28T19:11:02.749Z,65.64
2018-09-28T19:13:32.022Z,65.91
2018-09-28T19:16:01.084Z,66.13
2018-09-28T19:18:32.992Z,66.26
2018-09-28T19:21:04.642Z,66.23
2018-09-28T19:23:33.654Z,66.09
2018-09-28T19:26:03.061Z,65.87
2018-09-28T19:28:32.520Z,65.95
2018-09-28T19:31:01.832Z,65.70
2018-09-28T19:33:32.965Z,66.05
2018-09-28T19:36:01.967Z,66.08
2018-09-28T19:38:31.242Z,66.44
2018-09-28T19:41:00.454Z,66.29
2018-09-28T19:43:29.521Z,66.13
2018-09-28T19:45:58.645Z,66.25
2018-09-28T19:48:28.108Z,66.19
2018-09-28T19:50:57.717Z,66.02
2018-09-28T19:53:26.861Z,65.96
2018-09-28T19:55:56.945Z,65.83
2018-09-28T19:58:26.088Z,65.74
2018-09-28T20:00:55.249Z,65.91
2018-09-28T20:03:25.297Z,65.79
2018-09-28T20:05:54.640Z,65.79
2018-09-28T20:08:23.781Z,65.87
2018-09-28T20:10:52.917Z,65.78
2018-09-28T20:13:22.053Z,65.60
2018-09-28T20:15:52.157Z,65.47
2018-09-28T20:18:21.290Z,65.51
2018-09-28T20:20:51.010Z,65.58
2018-09-28T20:23:21.060Z,65.53
2018-09-28T20:25:50.221Z,65.61
2018-09-28T20:28:19.331Z,65.63
2018-09-28T20:30:48.429Z,65.42
2018-09-28T20:33:17.555Z,65.61
2018-09-28T20:35:46.820Z,65.50
2018-09-28T20:38:15.847Z,65.52
2018-09-28T20:40:45.215Z,65.57
2018-09-28T20:43:14.371Z,65.41
2018-09-28T20:45:43.564Z,65.60
2018-09-28T20:48:12.603Z,65.81
2018-09-28T20:50:41.760Z,65.79
2018-09-28T20:53:11.012Z,65.95
2018-09-28T20:55:40.117Z,66.04
2018-09-28T20:58:09.248Z,66.15
2018-09-28T21:00:38.431Z,66.14
2018-09-28T21:03:07.341Z,66.39
2018-09-28T21:05:36.608Z,66.43
2018-09-28T21:08:05.661Z,66.57
2018-09-28T21:10:35.578Z,66.68
2018-09-28T21:13:04.729Z,66.68
2018-09-28T21:15:33.778Z,66.73
2018-09-28T21:18:02.943Z,66.73
2018-09-28T21:20:32.061Z,66.76
2018-09-28T21:23:01.563Z,66.76
2018-09-28T21:25:31.458Z,66.70
2018-09-28T21:28:00.573Z,66.90
2018-09-28T21:30:29.668Z,66.67
2018-09-28T21:32:58.814Z,66.58
2018-09-28T21:35:27.894Z,66.74
2018-09-28T21:37:56.953Z,66.66
2018-09-28T21:40:26.044Z,66.61
2018-09-28T21:42:55.587Z,66.51
2018-09-28T21:45:24.687Z,66.72
2018-09-28T21:47:53.797Z,66.77
2018-09-28T21:50:22.912Z,66.85
2018-09-28T21:52:52.324Z,67.06
2018-09-28T21:55:21.379Z,67.12
2018-09-28T21:57:50.565Z,67.08
2018-09-28T22:00:19.686Z,67.13
2018-09-28T22:02:48.674Z,67.09
2018-09-28T22:05:27.038Z,67.09
2018-09-28T22:07:56.195Z,67.41
2018-09-28T22:10:25.364Z,67.39
2018-09-28T22:12:54.452Z,67.30
2018-09-28T22:15:23.783Z,67.39
2018-09-28T22:17:53.287Z,67.25
2018-09-28T22:20:35.703Z,67.11
2018-09-28T22:26:10.916Z,66.81
2018-09-28T22:28:51.975Z,66.81
2018-09-28T22:31:21.113Z,67.02
2018-09-28T22:34:06.959Z,67.25
2018-09-28T22:36:39.396Z,67.37
2018-09-28T22:39:30.339Z,67.55
2018-09-28T22:42:13.324Z,67.95
2018-09-28T22:44:58.120Z,68.05
2018-09-28T22:47:43.331Z,68.12
2018-09-28T22:50:31.330Z,68.09
2018-09-28T22:53:18.805Z,67.99
2018-09-28T22:56:02.667Z,67.97
2018-09-28T22:58:32.020Z,68.13
2018-09-28T23:01:17.147Z,68.27
2018-09-28T23:04:00.926Z,68.44
2018-09-28T23:06:46.091Z,68.70
2018-09-28T23:09:15.257Z,68.83
2018-09-28T23:11:48.252Z,68.98
2018-09-28T23:14:17.899Z,69.05
2018-09-28T23:16:46.888Z,69.04
2018-09-28T23:19:15.851Z,68.97
2018-09-28T23:21:44.981Z,68.80
2018-09-28T23:24:14.016Z,68.68
2018-09-28T23:26:43.823Z,68.56
2018-09-28T23:29:12.799Z,68.47
2018-09-28T23:31:41.826Z,68.25
2018-09-28T23:34:10.909Z,68.39
2018-09-28T23:36:40.060Z,68.47
2018-09-28T23:39:10.168Z,68.55
2018-09-28T23:41:39.634Z,68.64
2018-09-28T23:44:09.265Z,68.19
2018-09-28T23:46:38.330Z,68.27
2018-09-28T23:49:07.749Z,67.83
2018-09-28T23:51:37.804Z,68.07
2018-09-28T23:54:06.837Z,68.11
2018-09-28T23:56:35.840Z,68.18
2018-09-28T23:59:04.915Z,67.70
